South Hill, VA

8:06 PM EST on December 26, 2014 (GMT -0500)
Near CMH | Change Station
CLOSE
Current Station
Personal Weather Station
Location: South Hill, VA
Elevation: 423 ft
Nearby Weather Stations

Elev 423 ft 36.74 °N, 78.13 °W | Updated 46 seconds ago

Partly Cloudy
Partly Cloudy
43.4 °F
Feels Like 43 °F
N
0.0
Wind Variable Wind from North
Gusts 0.0 mph

Today
High -- | Low -- °F
--% Chance of Precip.
Yesterday
High -- | Low -- °F
Precip. -- in
7:23 AM 5:02 PM
Waxing Crescent, 31% visible
Pressure 30.36 in
Visibility 10.0 miles
Clouds Clear
Windchill 43 °F
Dew Point 38 °F
Humidity 82%
Rainfall 0.00 in
Snow Depth Not available.
UV 0.0 out of 12
Pollen 1.40 out of 12
Air Quality Not available.
Flu Activity Not available.
METAR KAVC 270056Z AUTO 00000KT 10SM CLR 04/02 A3036 RMK AO2 T00380024

More Conditions Fewer Conditions

Pressure 30.36 in
Visibility 10.0 miles
Clouds Clear
Windchill 43 °F
Dew Point 38 °F
Humidity 82%
Rainfall 0.00 in
Snow Depth Not available.
UV 0.0 out of 12
Pollen 1.40 out of 12
Air Quality Not available.
Flu Activity Not available.
METAR KAVC 270056Z AUTO 00000KT 10SM CLR 04/02 A3036 RMK AO2 T00380024

More Conditions Fewer Conditions

10-Day Weather Forecast

Almanac

Astronomy

Dec. 26, 2014 Rise Set
Actual Time
Civil Twilight
Nautical Twilight
Astronomical Twilight
Moon
Length of Visible Light
Length of Day
Tomorrow will be .
, % of the Moon is Illuminated

Today's Extremes

State Highs State Lows

Community

WunderPhotos

Upload Photos

1,780,800 photos uploaded!

WunderBlogs® & News

Nearby

Air Quality

  Air Quality AQ Index Pollutant
Not available.

Snow Depth

Station Depth Elevation

Earthquake Activity

City Distance Mag. Time & Date
Minimum magnitude displayed is 2.5.

Coastal Water Temperatures

Place Temperature

Nearby Weather Stations